Time;durP1;ratioP1;P1;durP2;ratioP2;P2;SDS_P1;SDS_P2;PMS_P1;PMS_P2;Temp;Humidity;BMP_temperature;BMP_pressure;BME280_temperature;BME280_humidity;BME280_pressure;Samples;Min_cycle;Max_cycle;Signal;HPM_P1;HPM_P2
2022/02/15 00:01:28;;;;;;;4.85;1.70;;;;;;;18.75;48.43;100588.03;5013154;28;20458;-68
2022/02/15 00:03:53;;;;;;;4.43;1.60;;;;;;;18.75;48.17;100593.31;5012857;28;20058;-68
2022/02/15 00:06:18;;;;;;;4.77;1.70;;;;;;;18.73;48.06;100587.31;5012899;28;20664;-68
2022/02/15 00:08:44;;;;;;;5.35;1.52;;;;;;;18.71;47.85;100591.91;5013583;28;20268;-67
2022/02/15 00:11:09;;;;;;;5.32;1.65;;;;;;;18.70;48.15;100595.50;5012664;28;20390;-68
2022/02/15 00:13:34;;;;;;;5.20;1.63;;;;;;;18.70;48.29;100592.06;5012815;28;20069;-68
2022/02/15 00:16:02;;;;;;;3.35;1.50;;;;;;;18.64;48.07;100588.97;5013519;28;20029;-66
2022/02/15 00:18:28;;;;;;;6.20;1.80;;;;;;;18.65;47.97;100595.09;5012481;28;20482;-68
2022/02/15 00:20:53;;;;;;;5.05;1.65;;;;;;;18.63;48.27;100586.47;5012964;28;20108;-66
2022/02/15 00:23:18;;;;;;;4.17;1.40;;;;;;;18.60;48.09;100592.84;5012577;28;20033;-67
2022/02/15 00:25:44;;;;;;;4.90;1.40;;;;;;;18.60;48.04;100603.41;5013308;28;20287;-67
2022/02/15 00:28:09;;;;;;;4.38;1.40;;;;;;;18.58;48.37;100610.63;5012779;28;20310;-67
2022/02/15 00:30:34;;;;;;;4.30;1.67;;;;;;;18.57;48.29;100611.59;5012728;28;20022;-68
2022/02/15 00:33:00;;;;;;;4.82;1.70;;;;;;;18.55;48.28;100612.69;5013240;28;20084;-67
2022/02/15 00:35:25;;;;;;;3.73;1.60;;;;;;;18.54;48.38;100616.31;5012540;28;20359;-67
2022/02/15 00:37:51;;;;;;;5.20;1.55;;;;;;;18.51;48.38;100622.66;5012803;28;20044;-67
2022/02/15 00:40:16;;;;;;;5.57;1.70;;;;;;;18.49;48.49;100625.44;5012693;28;20072;-67
2022/02/15 00:42:42;;;;;;;4.47;1.60;;;;;;;18.48;48.43;100622.94;5012834;28;20058;-68
2022/02/15 00:45:11;;;;;;;5.63;1.80;;;;;;;18.47;48.45;100632.66;5012061;28;20068;-67
2022/02/15 00:47:36;;;;;;;5.63;1.85;;;;;;;18.45;48.31;100631.97;5012657;28;20041;-67
2022/02/15 00:50:02;;;;;;;4.85;1.40;;;;;;;18.44;48.29;100629.47;5012666;28;20121;-67
2022/02/15 00:52:27;;;;;;;5.30;1.75;;;;;;;18.42;48.73;100634.88;5011834;28;20370;-67
2022/02/15 00:54:56;;;;;;;4.47;2.22;;;;;;;18.41;48.40;100635.81;5013000;28;20030;-67
2022/02/15 00:57:22;;;;;;;4.63;1.48;;;;;;;18.41;48.63;100642.91;5012301;28;20025;-67
2022/02/15 00:59:49;;;;;;;5.57;1.70;;;;;;;18.39;48.51;100644.81;5012331;28;20026;-67
2022/02/15 01:02:14;;;;;;;4.57;1.55;;;;;;;18.36;48.43;100645.94;5012371;28;20108;-67
2022/02/15 01:04:40;;;;;;;4.28;1.60;;;;;;;18.33;48.25;100646.19;5012398;28;20137;-67
2022/02/15 01:07:08;;;;;;;4.72;1.52;;;;;;;18.33;48.32;100651.47;5012216;28;20461;-67
2022/02/15 01:09:33;;;;;;;5.10;1.70;;;;;;;18.31;48.71;100646.34;5012316;28;20034;-66
2022/02/15 01:11:59;;;;;;;4.78;1.50;;;;;;;18.30;48.48;100649.09;5012879;28;20022;-67
2022/02/15 01:14:25;;;;;;;4.93;1.60;;;;;;;18.30;48.57;100654.38;5011835;28;20030;-67
2022/02/15 01:16:50;;;;;;;3.65;1.23;;;;;;;18.27;48.46;100658.09;5012551;28;20470;-67
2022/02/15 01:19:15;;;;;;;4.13;1.55;;;;;;;18.27;48.61;100659.91;5012254;28;20100;-67
2022/02/15 01:21:40;;;;;;;5.13;1.73;;;;;;;18.25;48.64;100654.75;5012153;28;20022;-68
2022/02/15 01:24:06;;;;;;;4.50;1.83;;;;;;;18.25;48.60;100656.56;5012384;28;20065;-67
2022/02/15 01:26:31;;;;;;;3.47;1.58;;;;;;;18.25;48.83;100653.94;5015947;28;20057;-67
2022/02/15 01:28:56;;;;;;;4.20;1.42;;;;;;;18.23;48.47;100663.75;5016077;28;20036;-68
2022/02/15 01:31:22;;;;;;;5.45;1.73;;;;;;;18.22;48.82;100662.09;5015963;28;20021;-68
2022/02/15 01:33:47;;;;;;;4.65;1.77;;;;;;;18.21;48.54;100666.53;5015786;28;20539;-68
2022/02/15 01:36:12;;;;;;;3.55;1.40;;;;;;;18.20;48.84;100669.28;5016263;28;20101;-67
2022/02/15 01:38:38;;;;;;;3.72;1.50;;;;;;;18.19;48.69;100672.91;5016167;28;20433;-67
2022/02/15 01:41:06;;;;;;;4.78;1.52;;;;;;;18.19;48.75;100675.56;5015816;28;20053;-66
2022/02/15 01:43:37;;;;;;;4.68;1.67;;;;;;;18.18;48.49;100679.97;5016003;28;20049;-66
2022/02/15 01:46:02;;;;;;;4.60;1.58;;;;;;;18.16;48.51;100679.28;5015908;28;20427;-66
2022/02/15 01:48:27;;;;;;;4.07;1.52;;;;;;;18.14;48.75;100678.56;5015099;28;20034;-67
2022/02/15 01:50:52;;;;;;;5.83;2.00;;;;;;;18.13;48.81;100684.81;5016328;28;20022;-67
2022/02/15 01:53:18;;;;;;;4.70;1.55;;;;;;;18.12;48.95;100686.63;5015699;28;20302;-67
2022/02/15 01:55:43;;;;;;;4.05;1.48;;;;;;;18.10;48.83;100685.91;5015368;28;20034;-67
2022/02/15 01:58:09;;;;;;;4.07;1.65;;;;;;;18.10;48.85;100688.56;5015686;28;20026;-67
2022/02/15 02:00:34;;;;;;;3.53;1.48;;;;;;;18.10;48.90;100690.34;5015636;28;20030;-67
2022/02/15 02:02:59;;;;;;;5.53;1.70;;;;;;;18.09;48.67;100681.59;5015072;28;20405;-67
2022/02/15 02:08:09;;;;;;;5.20;1.40;;;;;;;18.06;48.91;100684.50;5015495;28;20037;-68
2022/02/15 02:10:35;;;;;;;4.38;1.60;;;;;;;18.06;48.94;100689.75;5015153;28;20021;-67
2022/02/15 02:13:03;;;;;;;3.75;1.60;;;;;;;18.04;48.83;100696.97;5015426;28;20022;-68
2022/02/15 02:15:28;;;;;;;5.20;1.88;;;;;;;18.04;48.66;100696.13;5015256;28;20026;-68
2022/02/15 02:17:54;;;;;;;5.37;1.90;;;;;;;18.04;48.89;100696.13;5015129;28;20018;-67
2022/02/15 02:20:20;;;;;;;4.78;1.90;;;;;;;18.00;48.88;100692.91;5015104;28;20307;-68
2022/02/15 02:22:46;;;;;;;6.03;1.95;;;;;;;18.00;49.08;100690.28;5015926;28;20049;-68
2022/02/15 02:25:13;;;;;;;3.83;1.73;;;;;;;18.01;48.69;100693.72;5014504;28;20084;-68
2022/02/15 02:27:39;;;;;;;5.82;1.70;;;;;;;18.01;48.53;100696.38;5014962;28;20022;-67
2022/02/15 02:30:06;;;;;;;4.90;1.77;;;;;;;17.99;48.89;100698.31;5014794;28;20033;-68
2022/02/15 02:32:31;;;;;;;3.38;1.63;;;;;;;17.99;48.88;100708.84;5015291;28;20049;-67
2022/02/15 02:34:59;;;;;;;4.38;1.75;;;;;;;17.99;49.09;100709.72;5015061;28;20049;-66
2022/02/15 02:37:25;;;;;;;4.93;1.63;;;;;;;17.96;48.65;100704.69;5014032;28;20084;-67
2022/02/15 02:39:52;;;;;;;5.75;1.63;;;;;;;17.95;48.70;100713.56;5015286;28;20443;-66
2022/02/15 02:42:20;;;;;;;4.15;1.70;;;;;;;17.96;49.12;100709.97;5014622;28;20022;-67
2022/02/15 02:44:47;;;;;;;4.47;1.63;;;;;;;17.94;48.68;100725.03;5014596;28;20036;-66
2022/02/15 02:47:12;;;;;;;5.10;1.77;;;;;;;17.94;49.09;100719.78;5014998;28;20066;-66
2022/02/15 02:49:38;;;;;;;5.72;1.42;;;;;;;17.92;49.11;100711.16;5014916;28;20551;-66
2022/02/15 02:52:04;;;;;;;5.55;1.85;;;;;;;17.92;48.89;100712.00;5014395;28;20022;-67
2022/02/15 02:54:29;;;;;;;4.30;1.58;;;;;;;17.92;48.97;100722.53;5014289;28;20133;-67
2022/02/15 02:56:55;;;;;;;5.85;1.70;;;;;;;17.90;49.03;100721.84;5015024;28;20374;-67
2022/02/15 02:59:21;;;;;;;5.20;1.73;;;;;;;17.89;49.04;100721.97;5014385;28;20026;-67
2022/02/15 03:01:47;;;;;;;5.28;1.80;;;;;;;17.91;48.63;100722.66;5014512;28;20026;-67
2022/02/15 03:04:12;;;;;;;5.03;1.80;;;;;;;17.89;48.38;100732.50;5014262;28;20137;-67
2022/02/15 03:06:38;;;;;;;3.10;1.50;;;;;;;17.88;48.92;100729.03;5014270;28;20080;-67
2022/02/15 03:09:04;;;;;;;5.35;2.00;;;;;;;17.88;48.74;100736.09;5014627;28;20026;-67
2022/02/15 03:11:30;;;;;;;5.50;1.75;;;;;;;17.89;49.35;100738.59;5014320;28;20025;-68
2022/02/15 03:13:55;;;;;;;4.32;1.90;;;;;;;17.91;49.39;100744.63;5013953;28;20554;-67
2022/02/15 03:16:23;;;;;;;3.90;1.70;;;;;;;17.94;49.18;100746.13;5014115;28;20045;-67
2022/02/15 03:18:48;;;;;;;5.28;1.90;;;;;;;17.97;49.17;100739.78;5014795;28;20267;-67
2022/02/15 03:21:14;;;;;;;4.00;1.65;;;;;;;18.00;49.05;100743.00;5013304;28;20581;-67
2022/02/15 03:23:39;;;;;;;4.32;1.77;;;;;;;18.04;48.71;100760.25;5014035;28;20046;-67
2022/02/15 03:26:04;;;;;;;5.03;1.80;;;;;;;18.04;48.82;100744.44;5014461;28;20026;-69
2022/02/15 03:28:29;;;;;;;6.22;2.25;;;;;;;18.07;49.39;100746.81;5013092;28;20321;-67
2022/02/15 03:30:55;;;;;;;6.10;1.90;;;;;;;18.09;48.59;100746.69;5014165;28;20029;-67
2022/02/15 03:33:20;;;;;;;4.87;1.87;;;;;;;18.10;48.79;100757.13;5013569;28;20029;-67
2022/02/15 03:35:45;;;;;;;5.40;1.75;;;;;;;18.11;49.06;100761.41;5014330;28;20797;-67
2022/02/15 03:38:10;;;;;;;3.90;1.50;;;;;;;18.11;48.79;100763.22;5013700;28;20053;-67
2022/02/15 03:43:24;;;;;;;4.82;1.80;;;;;;;18.13;48.84;100774.47;5022502;28;20295;-67
2022/02/15 03:45:49;;;;;;;5.70;2.07;;;;;;;18.14;48.36;100776.16;5013817;28;20536;-67
2022/02/15 03:48:15;;;;;;;5.53;2.10;;;;;;;18.15;48.63;100783.13;5012686;28;20755;-67
2022/02/15 03:50:41;;;;;;;4.82;1.77;;;;;;;18.14;48.32;100773.53;5013521;28;20489;-66
2022/02/15 03:53:07;;;;;;;4.22;1.67;;;;;;;18.15;48.43;100785.75;5013647;28;20034;-67
2022/02/15 03:55:32;;;;;;;4.80;1.75;;;;;;;18.16;48.19;100783.94;5013084;28;20030;-67
2022/02/15 03:57:58;;;;;;;4.50;1.80;;;;;;;18.13;47.68;100791.16;5013732;28;20030;-67
2022/02/15 04:00:23;;;;;;;4.68;1.80;;;;;;;18.13;47.67;100792.94;5013411;28;20467;-67
2022/02/15 04:02:48;;;;;;;4.77;1.80;;;;;;;18.13;48.18;100798.22;5013098;28;20050;-67
2022/02/15 04:05:14;;;;;;;4.63;1.67;;;;;;;18.11;47.84;100793.06;5013035;28;20314;-67
2022/02/15 04:07:39;;;;;;;4.80;1.60;;;;;;;18.13;48.24;100799.06;5013464;28;20036;-67
2022/02/15 04:10:05;;;;;;;4.72;1.85;;;;;;;18.13;48.14;100808.75;5012917;28;20034;-67
2022/02/15 04:12:30;;;;;;;4.80;1.70;;;;;;;18.13;48.42;100804.34;5013071;28;20062;-67
2022/02/15 04:14:58;;;;;;;4.00;1.60;;;;;;;18.16;48.73;100819.06;5013422;28;20041;-67
2022/02/15 04:17:23;;;;;;;4.63;1.70;;;;;;;18.17;48.29;100809.38;5012631;28;20278;-67
2022/02/15 04:19:48;;;;;;;4.63;1.70;;;;;;;18.18;48.29;100805.75;5013228;28;20030;-67
2022/02/15 04:22:13;;;;;;;4.90;2.00;;;;;;;18.19;48.56;100810.06;5013098;28;20314;-67
2022/02/15 04:24:39;;;;;;;4.07;1.70;;;;;;;18.19;48.24;100818.81;5012996;28;20041;-66
2022/02/15 04:27:04;;;;;;;7.32;1.80;;;;;;;18.20;48.00;100824.91;5013243;28;20041;-67
2022/02/15 04:29:36;;;;;;;4.85;1.70;;;;;;;18.21;48.26;100830.06;5012404;28;20049;-68
2022/02/15 04:32:01;;;;;;;4.93;1.65;;;;;;;18.20;48.10;100835.47;5013260;28;20093;-67
2022/02/15 04:34:26;;;;;;;4.10;1.70;;;;;;;18.21;48.05;100842.44;5012531;28;20030;-67
2022/02/15 04:36:54;;;;;;;4.50;1.70;;;;;;;18.20;48.32;100846.88;5012572;28;20462;-67
2022/02/15 04:39:19;;;;;;;5.75;1.77;;;;;;;18.20;47.99;100846.88;5012471;28;20271;-67
2022/02/15 04:41:45;;;;;;;3.85;1.70;;;;;;;18.20;48.36;100853.94;5012740;28;20033;-67
2022/02/15 04:44:16;;;;;;;4.13;1.50;;;;;;;18.20;48.38;100848.66;5012028;28;20068;-67
2022/02/15 04:46:41;;;;;;;4.93;1.60;;;;;;;18.19;48.38;100861.03;5012736;28;20040;-67
2022/02/15 04:49:07;;;;;;;5.30;1.95;;;;;;;18.18;48.06;100853.22;5012739;28;20029;-67
2022/02/15 04:51:33;;;;;;;3.95;1.75;;;;;;;18.16;48.18;100855.16;5012287;28;20026;-67
2022/02/15 04:53:59;;;;;;;3.47;1.60;;;;;;;18.19;47.94;100860.19;5012560;28;20088;-66
2022/02/15 04:56:24;;;;;;;5.20;1.90;;;;;;;18.19;47.93;100862.81;5012482;28;20490;-67
2022/02/15 04:58:49;;;;;;;5.78;2.20;;;;;;;18.16;47.79;100861.25;5012301;28;20034;-67
2022/02/15 05:01:16;;;;;;;5.17;1.87;;;;;;;18.16;48.01;100856.00;5012347;28;20088;-67
2022/02/15 05:03:41;;;;;;;6.35;1.90;;;;;;;18.16;48.18;100865.72;5012444;28;20398;-67
2022/02/15 05:06:09;;;;;;;4.63;1.90;;;;;;;18.17;48.55;100862.94;5011954;28;20110;-66
2022/02/15 05:08:35;;;;;;;4.97;1.73;;;;;;;18.18;48.36;100867.25;5012307;28;20092;-66
2022/02/15 05:11:00;;;;;;;4.88;2.00;;;;;;;18.19;48.24;100866.28;5012996;28;20034;-66
2022/02/15 05:13:28;;;;;;;4.23;1.97;;;;;;;18.20;48.55;100869.75;5011895;28;20045;-66
2022/02/15 05:15:53;;;;;;;4.72;1.65;;;;;;;18.21;48.19;100874.09;5012382;28;20774;-67
2022/02/15 05:18:18;;;;;;;4.43;2.00;;;;;;;18.21;48.54;100876.72;5012428;28;20128;-66
2022/02/15 05:20:44;;;;;;;4.10;1.50;;;;;;;18.20;48.11;100878.53;5011937;28;20644;-66
2022/02/15 05:23:09;;;;;;;4.72;1.92;;;;;;;18.21;48.48;100877.56;5012502;28;20044;-66
2022/02/15 05:25:35;;;;;;;4.55;1.85;;;;;;;18.20;48.25;100877.66;5012666;28;20118;-66
2022/02/15 05:28:00;;;;;;;4.10;2.00;;;;;;;18.21;48.17;100880.19;5012144;28;20385;-66
2022/02/15 05:30:27;;;;;;;4.57;1.85;;;;;;;18.21;48.15;100884.63;5011915;28;20033;-66
2022/02/15 05:32:52;;;;;;;5.40;2.20;;;;;;;18.19;48.23;100887.41;5012074;28;20022;-66
2022/02/15 05:35:18;;;;;;;3.97;1.73;;;;;;;18.20;48.37;100882.94;5012032;28;20033;-66
2022/02/15 05:37:43;;;;;;;4.85;1.73;;;;;;;18.19;48.42;100892.66;5012042;28;20478;-66
2022/02/15 05:40:10;;;;;;;3.83;1.70;;;;;;;18.19;48.38;100892.66;5011735;28;20041;-67
2022/02/15 05:42:35;;;;;;;4.15;1.88;;;;;;;18.19;48.21;100892.66;5012425;28;20076;-67
2022/02/15 05:45:02;;;;;;;5.63;2.00;;;;;;;18.17;48.45;100889.31;5012292;28;20041;-67
2022/02/15 05:47:27;;;;;;;3.78;1.75;;;;;;;18.18;48.43;100892.78;5011487;28;20033;-67
2022/02/15 05:52:36;;;;;;;4.93;1.85;;;;;;;18.16;48.08;100889.44;5012291;28;20036;-68
2022/02/15 05:55:02;;;;;;;3.88;1.60;;;;;;;18.14;48.22;100884.31;5011774;28;20034;-67
2022/02/15 05:57:28;;;;;;;4.28;1.83;;;;;;;18.15;48.22;100898.31;5011767;28;20465;-66
2022/02/15 05:59:54;;;;;;;5.85;1.90;;;;;;;18.15;48.54;100890.41;5012422;28;20065;-66
2022/02/15 06:02:20;;;;;;;4.70;1.90;;;;;;;18.16;48.43;100895.56;5011237;28;20192;-66
2022/02/15 06:04:52;;;;;;;5.43;2.08;;;;;;;18.18;48.36;100895.44;5011707;28;20049;-67
2022/02/15 06:07:17;;;;;;;3.88;1.75;;;;;;;18.20;48.43;100893.50;5012066;28;20032;-67
2022/02/15 06:09:42;;;;;;;4.53;2.22;;;;;;;18.23;49.23;100895.88;5011373;28;20125;-67
2022/02/15 06:12:08;;;;;;;4.60;1.83;;;;;;;18.26;49.15;100898.28;5014608;28;20038;-67
2022/02/15 06:14:33;;;;;;;4.28;1.75;;;;;;;18.30;49.16;100905.81;5015634;28;20671;-68
2022/02/15 06:16:59;;;;;;;5.57;2.08;;;;;;;18.32;49.24;100905.72;5015130;28;20022;-67
2022/02/15 06:19:27;;;;;;;3.93;1.73;;;;;;;18.37;49.99;100915.88;5014826;28;20026;-67
2022/02/15 06:21:52;;;;;;;5.68;1.67;;;;;;;18.41;50.40;100914.69;5015636;28;20275;-67
2022/02/15 06:24:17;;;;;;;4.85;1.80;;;;;;;18.43;50.50;100913.59;5014598;28;20037;-67
2022/02/15 06:26:46;;;;;;;4.97;1.85;;;;;;;18.46;50.13;100909.88;5015176;28;20045;-67
2022/02/15 06:29:12;;;;;;;4.45;1.75;;;;;;;18.49;50.24;100912.25;5014506;28;20026;-66
2022/02/15 06:31:37;;;;;;;4.63;1.70;;;;;;;18.51;49.92;100912.13;5015256;28;20033;-66
2022/02/15 06:34:04;;;;;;;4.57;1.60;;;;;;;18.52;50.76;100914.66;5015094;28;20022;-66
2022/02/15 06:36:30;;;;;;;5.68;1.52;;;;;;;18.55;50.61;100926.75;5014474;28;20052;-67
2022/02/15 06:38:56;;;;;;;4.10;1.48;;;;;;;18.58;50.53;100929.13;5015179;28;20058;-67
2022/02/15 06:41:21;;;;;;;4.07;1.50;;;;;;;18.59;50.61;100926.38;5014905;28;20029;-67
2022/02/15 06:43:47;;;;;;;5.07;2.00;;;;;;;18.60;50.50;100930.69;5015086;28;20422;-67
2022/02/15 06:46:12;;;;;;;5.83;1.70;;;;;;;18.63;50.46;100934.91;5014841;28;20662;-67
2022/02/15 06:48:37;;;;;;;3.60;1.30;;;;;;;18.65;50.71;100946.97;5014882;28;20267;-67
2022/02/15 06:51:02;;;;;;;3.22;1.35;;;;;;;18.66;50.45;100946.03;5014641;28;20347;-67
2022/02/15 06:53:27;;;;;;;3.77;1.50;;;;;;;18.70;50.80;100959.81;5014426;28;20378;-67
2022/02/15 06:55:53;;;;;;;3.90;1.50;;;;;;;18.72;50.52;100951.75;5015009;28;20287;-67
2022/02/15 06:58:18;;;;;;;6.00;1.50;;;;;;;18.72;50.63;100955.22;5013963;28;20359;-67
2022/02/15 07:00:43;;;;;;;3.87;1.70;;;;;;;18.74;50.41;100953.31;5014523;28;20044;-67
2022/02/15 07:03:09;;;;;;;4.75;1.40;;;;;;;18.75;50.15;100954.97;5014381;28;20124;-67
2022/02/15 07:05:36;;;;;;;5.18;2.03;;;;;;;18.73;48.97;100959.56;5014170;28;20473;-65
2022/02/15 07:08:04;;;;;;;4.40;1.77;;;;;;;18.75;49.31;100960.25;5014632;28;20029;-66
2022/02/15 07:10:32;;;;;;;4.47;1.23;;;;;;;18.78;49.24;100962.66;5014229;28;20062;-66
2022/02/15 07:12:58;;;;;;;3.70;1.25;;;;;;;18.82;49.13;100971.19;5013953;28;20639;-65
2022/02/15 07:15:24;;;;;;;3.28;1.10;;;;;;;18.84;49.36;100967.47;5013899;28;20026;-65
2022/02/15 07:17:55;;;;;;;3.15;1.08;;;;;;;18.89;49.43;100972.38;5014410;28;20026;-67
2022/02/15 07:20:20;;;;;;;3.90;1.33;;;;;;;18.91;49.02;100975.72;5013647;28;20030;-67
2022/02/15 07:22:46;;;;;;;3.22;1.00;;;;;;;18.95;49.29;100981.59;5014395;28;20056;-65
2022/02/15 07:25:11;;;;;;;3.17;1.20;;;;;;;18.95;49.32;100979.78;5013875;28;20073;-66
2022/02/15 07:27:37;;;;;;;3.28;1.30;;;;;;;18.96;49.27;100985.91;5013623;28;20021;-68
2022/02/15 07:30:04;;;;;;;3.80;1.13;;;;;;;18.98;49.24;100991.91;5013995;28;20017;-67
2022/02/15 07:32:29;;;;;;;3.95;1.15;;;;;;;19.00;49.16;100995.25;5013169;28;20029;-67
2022/02/15 07:34:56;;;;;;;5.75;1.23;;;;;;;19.01;49.40;101003.06;5014311;28;20030;-66
2022/02/15 07:37:22;;;;;;;3.25;1.13;;;;;;;19.03;49.43;101010.84;5013599;28;20036;-66
2022/02/15 07:39:48;;;;;;;2.95;1.08;;;;;;;19.03;49.23;101009.03;5013681;28;20034;-66
2022/02/15 07:42:16;;;;;;;3.72;1.35;;;;;;;19.06;49.19;101012.38;5013605;28;20389;-66
2022/02/15 07:44:41;;;;;;;2.47;1.10;;;;;;;19.06;49.50;101013.25;5013802;28;20025;-66
2022/02/15 07:47:10;;;;;;;2.60;1.20;;;;;;;19.07;49.24;101019.34;5013458;28;20021;-66
2022/02/15 07:49:35;;;;;;;5.10;1.58;;;;;;;19.09;49.64;101022.69;5014418;28;20350;-67
2022/02/15 07:52:02;;;;;;;3.47;1.23;;;;;;;19.09;49.18;101020.91;5013846;28;20117;-67
2022/02/15 07:54:27;;;;;;;2.85;1.25;;;;;;;19.09;49.08;101028.84;5012758;28;20512;-68
2022/02/15 07:56:52;;;;;;;3.75;1.40;;;;;;;19.11;49.03;101029.53;5013663;28;20076;-65
2022/02/15 07:59:18;;;;;;;4.35;1.30;;;;;;;19.12;49.05;101030.38;5013238;28;20080;-65
2022/02/15 08:01:43;;;;;;;2.70;1.27;;;;;;;19.13;49.68;101045.28;5013147;28;20080;-65
2022/02/15 08:04:10;;;;;;;5.78;1.30;;;;;;;19.12;49.62;101038.31;5012901;28;20046;-66
2022/02/15 08:06:36;;;;;;;3.30;1.40;;;;;;;19.13;49.83;101037.34;5013529;28;20108;-66
2022/02/15 08:09:03;;;;;;;5.05;1.40;;;;;;;19.13;49.95;101048.75;5013038;28;20030;-66
2022/02/15 08:11:38;;;;;;;2.97;1.30;;;;;;;19.14;49.65;101047.78;5012615;28;20083;-64
2022/02/15 08:14:03;;;;;;;4.20;1.60;;;;;;;19.15;49.03;101045.97;5013414;28;20022;-66
2022/02/15 08:16:29;;;;;;;4.20;1.30;;;;;;;19.15;49.31;101044.19;5012598;28;20029;-65
2022/02/15 08:18:55;;;;;;;3.83;1.43;;;;;;;19.20;49.30;101054.34;5014267;28;20030;-65
2022/02/15 08:21:20;;;;;;;4.22;1.27;;;;;;;19.25;49.50;101048.69;5013191;28;20275;-68
2022/02/15 08:23:46;;;;;;;4.85;1.60;;;;;;;19.28;49.71;101046.66;5012668;28;20477;-66
2022/02/15 08:26:11;;;;;;;3.20;1.40;;;;;;;19.31;49.93;101041.13;5012719;28;20486;-69
2022/02/15 08:28:43;;;;;;;9.63;1.80;;;;;;;19.36;49.67;101046.03;5013259;28;20377;-68
2022/02/15 08:31:10;;;;;;;4.13;1.15;;;;;;;19.40;49.63;101047.44;5013088;28;20279;-67
2022/02/15 08:33:36;;;;;;;4.05;1.38;;;;;;;19.45;49.67;101055.81;5012632;28;20072;-68
2022/02/15 08:36:03;;;;;;;4.05;1.40;;;;;;;19.49;49.49;101057.22;5014044;28;20018;-68
2022/02/15 08:38:33;;;;;;;2.97;1.30;;;;;;;19.51;49.36;101060.56;5012564;28;20026;-69
2022/02/15 08:40:58;;;;;;;7.97;1.67;;;;;;;19.55;48.87;101061.16;5013054;28;20052;-70
2022/02/15 08:43:24;;;;;;;4.75;1.58;;;;;;;19.57;48.58;101060.06;5012844;28;20473;-68
2022/02/15 08:45:49;;;;;;;5.17;1.60;;;;;;;19.60;48.63;101068.69;5013811;28;20018;-67
2022/02/15 08:48:14;;;;;;;4.00;1.53;;;;;;;19.63;48.46;101065.81;5013649;28;20281;-67
2022/02/15 08:50:42;;;;;;;4.90;1.63;;;;;;;19.61;47.24;101062.44;5012962;28;20025;-68
2022/02/15 08:53:07;;;;;;;3.38;1.40;;;;;;;19.60;47.59;101071.34;5012813;28;20747;-67
2022/02/15 08:55:33;;;;;;;4.60;1.50;;;;;;;19.55;48.33;101063.78;5012944;28;20033;-66
2022/02/15 08:57:58;;;;;;;4.38;1.80;;;;;;;19.50;47.71;101073.91;5012197;28;20030;-64
2022/02/15 09:00:24;;;;;;;3.42;1.00;;;;;;;19.46;47.62;101075.16;5012137;28;20075;-65
2022/02/15 09:02:49;;;;;;;4.57;1.50;;;;;;;19.43;47.64;101072.78;5012696;28;20052;-66
2022/02/15 09:05:14;;;;;;;4.40;1.40;;;;;;;19.40;48.24;101073.84;5011956;28;20310;-65
2022/02/15 09:07:39;;;;;;;3.70;1.20;;;;;;;19.34;48.25;101079.66;5012392;28;20026;-64
2022/02/15 09:10:05;;;;;;;6.25;1.40;;;;;;;19.34;48.25;101085.78;5012619;28;20156;-66
2022/02/15 09:12:31;;;;;;;3.65;1.25;;;;;;;19.32;48.85;101076.28;5011702;28;20049;-65
2022/02/15 09:14:56;;;;;;;5.93;1.40;;;;;;;19.30;49.06;101084.34;5012624;28;20030;-65
2022/02/15 09:17:21;;;;;;;4.17;1.30;;;;;;;19.27;48.43;101076.69;5012273;28;20502;-64
2022/02/15 09:19:46;;;;;;;3.45;1.10;;;;;;;19.28;48.36;101074.88;5012062;28;20688;-65
2022/02/15 09:22:15;;;;;;;6.13;1.60;;;;;;;19.25;48.34;101078.63;5012268;28;20113;-64
2022/02/15 09:24:40;;;;;;;5.43;1.40;;;;;;;19.25;48.34;101075.97;5012345;28;20291;-65
2022/02/15 09:27:06;;;;;;;4.07;1.23;;;;;;;19.25;47.61;101083.91;5012278;28;20033;-65
2022/02/15 09:29:31;;;;;;;5.20;1.58;;;;;;;19.22;48.54;101076.22;5012250;28;20026;-65
2022/02/15 09:31:56;;;;;;;4.47;1.30;;;;;;;19.22;48.09;101081.50;5012024;28;20109;-65
2022/02/15 09:34:23;;;;;;;4.63;1.50;;;;;;;19.23;47.91;101087.63;5011816;28;20026;-65
2022/02/15 09:36:50;;;;;;;3.63;1.45;;;;;;;19.21;48.10;101101.78;5012427;28;20113;-65
2022/02/15 09:39:16;;;;;;;4.90;1.23;;;;;;;19.20;48.16;101099.25;5011593;28;20432;-65
2022/02/15 09:41:41;;;;;;;4.25;1.30;;;;;;;19.19;48.11;101098.44;5012264;28;20430;-66
2022/02/15 09:44:07;;;;;;;4.88;1.58;;;;;;;19.19;48.63;101101.09;5012104;28;20128;-66
2022/02/15 09:46:34;;;;;;;4.18;1.27;;;;;;;19.17;48.13;101102.19;5013526;28;20022;-66
2022/02/15 09:49:01;;;;;;;5.90;1.35;;;;;;;19.17;48.11;101105.66;5016029;28;20022;-66
2022/02/15 09:51:27;;;;;;;3.63;1.38;;;;;;;19.16;48.23;101103.16;5015763;28;20025;-65
2022/02/15 09:53:53;;;;;;;5.15;1.35;;;;;;;19.16;48.83;101109.25;5016133;28;20030;-68
2022/02/15 09:56:19;;;;;;;3.97;1.38;;;;;;;19.19;48.69;101110.81;5016696;28;20393;-68
2022/02/15 09:58:45;;;;;;;6.43;1.20;;;;;;;19.20;48.29;101110.69;5016186;28;20029;-66
2022/02/15 10:01:15;;;;;;;3.30;1.13;;;;;;;19.20;48.31;101097.47;5015085;28;20022;-66
2022/02/15 10:03:58;;;;;;;5.32;1.33;;;;;;;19.19;48.10;101105.53;5015330;28;20088;-69
2022/02/15 10:06:31;;;;;;;6.43;1.53;;;;;;;19.23;47.68;101108.75;5015399;28;20022;-69
2022/02/15 10:09:01;;;;;;;4.18;1.60;;;;;;;19.27;47.80;101104.91;5015522;28;20026;-67
2022/02/15 10:11:38;;;;;;;4.57;1.60;;;;;;;19.32;47.72;101098.28;5015435;28;20038;-71
2022/02/15 10:14:04;;;;;;;3.50;1.55;;;;;;;19.37;48.09;101100.53;5015869;28;20022;-66
2022/02/15 10:16:31;;;;;;;6.65;1.75;;;;;;;19.34;48.51;101092.84;5014743;28;20026;-67
2022/02/15 10:18:57;;;;;;;3.97;1.95;;;;;;;19.32;48.71;101092.16;5015581;28;20026;-66
2022/02/15 10:21:27;;;;;;;3.17;1.30;;;;;;;19.30;48.67;101102.03;5014810;28;20029;-67
2022/02/15 10:23:52;;;;;;;4.07;1.48;;;;;;;19.28;48.78;101109.22;5015430;28;20076;-67
2022/02/15 10:26:18;;;;;;;4.00;1.48;;;;;;;19.27;48.62;101110.19;5015327;28;20034;-67
2022/02/15 10:28:43;;;;;;;4.47;1.58;;;;;;;19.26;47.96;101117.25;5014842;28;20036;-68
2022/02/15 10:31:12;;;;;;;3.67;1.50;;;;;;;19.24;48.10;101106.00;5014791;28;20022;-68
2022/02/15 10:33:40;;;;;;;3.83;1.40;;;;;;;19.24;48.25;101116.56;5015361;28;20040;-68
2022/02/15 10:36:08;;;;;;;4.68;1.67;;;;;;;19.24;47.74;101107.81;5014970;28;20026;-68
2022/02/15 10:38:34;;;;;;;4.45;1.60;;;;;;;19.22;47.93;101097.38;5015135;28;20060;-68
2022/02/15 10:41:09;;;;;;;4.43;1.80;;;;;;;19.20;48.27;101096.63;5015331;28;20038;-68
2022/02/15 10:43:48;;;;;;;;;;;;;;;19.19;48.92;101093.16;5015084;28;20030;-68
2022/02/15 10:46:19;;;;;;;6.95;1.90;;;;;;;19.20;49.10;101094.84;5014406;28;19920;-68
2022/02/15 10:48:46;;;;;;;4.47;1.50;;;;;;;19.21;49.13;101093.03;5015226;28;20054;-68
2022/02/15 10:51:13;;;;;;;2.85;1.40;;;;;;;19.21;49.22;101095.69;5014290;28;20030;-68
2022/02/15 10:53:38;;;;;;;2.85;1.27;;;;;;;19.21;49.13;101098.31;5014764;28;20030;-68
2022/02/15 10:56:04;;;;;;;2.80;1.25;;;;;;;19.19;48.60;101093.16;5014876;28;20030;-68
2022/02/15 10:58:32;;;;;;;5.20;1.50;;;;;;;19.20;48.30;101093.97;5013512;28;20061;-68
2022/02/15 11:00:59;;;;;;;3.97;1.35;;;;;;;19.19;48.39;101092.31;5015170;28;20030;-68
2022/02/15 11:03:29;;;;;;;4.45;1.30;;;;;;;19.19;48.73;101094.97;5013669;28;20045;-68
2022/02/15 11:05:55;;;;;;;4.75;1.63;;;;;;;19.16;47.43;101088.13;5014715;28;20053;-66
2022/02/15 11:08:21;;;;;;;4.13;1.25;;;;;;;19.15;48.37;101091.75;5014213;28;20089;-68
2022/02/15 11:10:54;;;;;;;4.40;1.38;;;;;;;19.16;47.35;101087.28;5014022;28;20038;-67
2022/02/15 11:13:20;;;;;;;4.10;1.30;;;;;;;19.18;47.56;101082.72;5014266;28;20038;-68
2022/02/15 11:15:51;;;;;;;4.05;1.20;;;;;;;19.24;47.48;101079.56;5014696;28;20029;-67
2022/02/15 11:18:29;;;;;;;3.53;1.33;;;;;;;19.32;47.53;101077.13;5013692;28;20470;-66
2022/02/15 11:20:56;;;;;;;4.50;1.20;;;;;;;19.37;47.29;101064.38;5014205;28;20497;-66
2022/02/15 11:23:33;;;;;;;3.15;1.27;;;;;;;19.38;47.18;101068.69;5013747;28;20025;-66
2022/02/15 11:26:07;;;;;;;3.53;1.13;;;;;;;19.37;46.98;101071.47;5013988;28;20042;-67
2022/02/15 11:28:33;;;;;;;4.72;1.20;;;;;;;19.37;47.58;101071.47;5014034;28;20029;-67